Terminal Aerodrome Forecast
Issued by NWS

Home | Current Version | Previous Version | Graphics & Text | Print | Product List | Glossary Off
Versions: 1 2 3 4 5 6 7 8 9 10 11 12 13 14 15 16 17

000
FTUS43 KDDC 180539
TAFGCK
TAF
KGCK 180539Z 1806/1906 34013G19KT P6SM SCT250
     FM180800 33020G30KT P6SM SCT250
     FM181100 34026G35KT P6SM BKN030
     FM181400 34026G35KT P6SM SCT035
     FM182200 33017KT P6SM SKC
     FM190100 32008KT P6SM SKC=

USA.gov is the U.S. government's official web portal to all federal, state and local government web resources and services.